Time;durP1;ratioP1;P1;durP2;ratioP2;P2;SDS_P1;SDS_P2;PMS_P1;PMS_P2;Temp;Humidity;BMP_temperature;BMP_pressure;BME280_temperature;BME280_humidity;BME280_pressure;Samples;Min_cycle;Max_cycle;Signal;HPM_P1;HPM_P2
2022/11/14 00:02:05;;;;;;;23.98;12.73;;;7.40;99.90;;;;;;5043926;28;20041;-68
2022/11/14 00:04:31;;;;;;;29.08;16.50;;;7.40;99.90;;;;;;5067460;28;20059;-68
2022/11/14 00:06:57;;;;;;;27.33;18.52;;;7.40;99.90;;;;;;5049800;28;20059;-67
2022/11/14 00:09:27;;;;;;;28.50;17.42;;;7.40;99.90;;;;;;5043619;28;20041;-68
2022/11/14 00:11:53;;;;;;;29.15;18.25;;;7.40;99.90;;;;;;5041175;28;20048;-67
2022/11/14 00:14:19;;;;;;;27.73;19.20;;;7.40;99.90;;;;;;5030428;28;20036;-68
2022/11/14 00:16:45;;;;;;;29.50;17.83;;;7.50;99.90;;;;;;5067679;28;20131;-68
2022/11/14 00:19:10;;;;;;;26.20;17.35;;;7.40;99.90;;;;;;5047533;28;20048;-68
2022/11/14 00:21:36;;;;;;;25.98;17.75;;;7.40;99.90;;;;;;5049032;28;20063;-68
2022/11/14 00:24:03;;;;;;;35.47;17.80;;;7.40;99.90;;;;;;5049008;28;20040;-67
2022/11/14 00:26:29;;;;;;;29.92;19.15;;;7.40;99.90;;;;;;5047345;28;20391;-67
2022/11/14 00:28:55;;;;;;;30.17;19.67;;;7.40;99.90;;;;;;5067324;28;20051;-68
2022/11/14 00:31:21;;;;;;;29.55;19.73;;;7.40;99.90;;;;;;5029947;28;20071;-68
2022/11/14 00:33:47;;;;;;;29.50;19.05;;;7.40;99.90;;;;;;5067644;28;20059;-68
2022/11/14 00:36:13;;;;;;;31.40;20.50;;;7.50;99.90;;;;;;5047150;28;20102;-68
2022/11/14 00:38:39;;;;;;;30.63;19.52;;;7.50;99.90;;;;;;5048117;28;20057;-68
2022/11/14 00:41:05;;;;;;;28.55;19.00;;;7.50;99.90;;;;;;5047284;28;20052;-68
2022/11/14 00:43:31;;;;;;;33.53;22.33;;;7.50;99.90;;;;;;5048223;28;20098;-68
2022/11/14 00:45:57;;;;;;;31.75;21.70;;;7.40;99.90;;;;;;5049135;28;20044;-67
2022/11/14 00:48:23;;;;;;;38.47;22.33;;;7.40;99.90;;;;;;5046394;28;20048;-67
2022/11/14 00:50:48;;;;;;;33.33;20.85;;;7.40;99.90;;;;;;5049396;28;20082;-67
2022/11/14 00:53:15;;;;;;;36.88;23.38;;;7.40;99.90;;;;;;5046649;28;20326;-68
2022/11/14 00:55:42;;;;;;;37.38;23.35;;;7.40;99.90;;;;;;5048983;28;20075;-67
2022/11/14 00:58:08;;;;;;;35.70;23.17;;;7.40;99.90;;;;;;5030852;28;20053;-67
2022/11/14 01:00:34;;;;;;;35.67;23.23;;;7.40;99.90;;;;;;5065876;28;20059;-67
2022/11/14 01:03:00;;;;;;;34.53;22.42;;;7.40;99.90;;;;;;5028766;28;20045;-67
2022/11/14 01:05:26;;;;;;;39.38;24.52;;;7.50;99.90;;;;;;5047666;28;20475;-68
2022/11/14 01:07:53;;;;;;;33.10;20.92;;;7.40;99.90;;;;;;5066753;28;20047;-67
2022/11/14 01:10:19;;;;;;;33.65;21.55;;;7.40;99.90;;;;;;5064235;28;20496;-67
2022/11/14 01:12:45;;;;;;;34.55;23.17;;;7.40;99.90;;;;;;5066615;28;20052;-67
2022/11/14 01:15:11;;;;;;;33.03;22.23;;;7.40;99.90;;;;;;5046825;28;20051;-67
2022/11/14 01:17:37;;;;;;;42.28;23.73;;;7.40;99.90;;;;;;5048016;28;20059;-68
2022/11/14 01:20:03;;;;;;;33.83;20.30;;;7.40;99.90;;;;;;5047008;28;20055;-67
2022/11/14 01:22:29;;;;;;;37.33;22.80;;;7.40;99.90;;;;;;5065923;28;20045;-67
2022/11/14 01:24:57;;;;;;;34.03;21.77;;;7.50;99.90;;;;;;5047991;28;20071;-68
2022/11/14 01:27:23;;;;;;;36.95;22.33;;;7.50;99.90;;;;;;5046496;28;20052;-67
2022/11/14 01:29:49;;;;;;;32.15;21.40;;;7.50;99.90;;;;;;5031824;28;20083;-68
2022/11/14 01:32:15;;;;;;;34.78;22.15;;;7.50;99.90;;;;;;5028662;28;20084;-67
2022/11/14 01:34:41;;;;;;;36.05;23.67;;;7.50;99.90;;;;;;5066315;28;20048;-68
2022/11/14 01:37:06;;;;;;;33.72;22.42;;;7.50;99.90;;;;;;5046766;28;20406;-68
2022/11/14 01:39:33;;;;;;;33.72;22.27;;;7.60;99.90;;;;;;5047723;28;20063;-67
2022/11/14 01:41:58;;;;;;;36.63;24.10;;;7.60;99.90;;;;;;5047195;28;20403;-67
2022/11/14 01:44:42;;;;;;;35.88;22.88;;;7.60;99.90;;;;;;5046669;28;20048;-68
2022/11/14 01:47:09;;;;;;;35.97;22.63;;;7.60;99.90;;;;;;5048081;28;20495;-68
2022/11/14 01:49:40;;;;;;;35.70;21.42;;;7.60;99.90;;;;;;5046182;28;20048;-67
2022/11/14 01:52:11;;;;;;;37.00;23.45;;;7.60;99.90;;;;;;5066101;28;20037;-67
2022/11/14 01:54:42;;;;;;;32.72;20.25;;;7.50;99.90;;;;;;5064436;28;20045;-68
2022/11/14 01:57:09;;;;;;;33.80;21.35;;;7.50;99.90;;;;;;5031363;28;20071;-68
2022/11/14 01:59:47;;;;;;;35.47;21.92;;;7.50;99.90;;;;;;5047363;28;20091;-68
2022/11/14 02:02:17;;;;;;;28.48;20.80;;;7.50;99.90;;;;;;5064179;28;20040;-68
2022/11/14 02:04:52;;;;;;;34.67;21.50;;;7.50;99.90;;;;;;5048200;28;20048;-68
2022/11/14 02:07:18;;;;;;;40.90;22.15;;;7.50;99.90;;;;;;5066461;28;20502;-68
2022/11/14 02:09:46;;;;;;;37.03;23.27;;;7.40;99.90;;;;;;5052109;28;20056;-68
2022/11/14 02:12:16;;;;;;;37.33;22.70;;;7.40;99.90;;;;;;5068648;28;20490;-67
2022/11/14 02:14:44;;;;;;;35.25;23.15;;;7.40;99.90;;;;;;5051101;28;20086;-68
2022/11/14 02:17:11;;;;;;;36.00;23.42;;;7.40;99.90;;;;;;5069957;28;20170;-68
2022/11/14 02:19:47;;;;;;;35.47;22.58;;;7.30;99.90;;;;;;5067628;28;20047;-67
2022/11/14 02:22:13;;;;;;;34.33;20.77;;;7.30;99.90;;;;;;5070032;28;20525;-68
2022/11/14 02:24:39;;;;;;;32.42;21.10;;;7.20;99.90;;;;;;5049091;28;20037;-67
2022/11/14 02:27:06;;;;;;;32.08;21.60;;;7.30;99.90;;;;;;5052073;28;20087;-69
2022/11/14 02:29:34;;;;;;;35.75;22.15;;;7.30;99.90;;;;;;5050849;28;20487;-67
2022/11/14 02:32:00;;;;;;;33.20;21.75;;;7.30;99.90;;;;;;5050784;28;20048;-67
2022/11/14 02:34:26;;;;;;;37.90;22.98;;;7.30;99.90;;;;;;5068826;28;20043;-67
2022/11/14 02:36:51;;;;;;;35.33;22.42;;;7.30;99.90;;;;;;5049943;28;20171;-67
2022/11/14 02:39:17;;;;;;;35.67;20.42;;;7.40;99.90;;;;;;5051698;28;20135;-67
2022/11/14 02:41:43;;;;;;;36.33;23.42;;;7.40;99.90;;;;;;5067013;28;20056;-68
2022/11/14 02:44:09;;;;;;;40.20;23.50;;;7.40;99.90;;;;;;5069613;28;20044;-67
2022/11/14 02:46:34;;;;;;;34.88;23.38;;;7.40;99.90;;;;;;5049340;28;20055;-67
2022/11/14 02:49:01;;;;;;;35.08;22.38;;;7.40;99.90;;;;;;5069307;28;20036;-67
2022/11/14 02:51:27;;;;;;;31.95;22.13;;;7.50;99.90;;;;;;5050817;28;20067;-67
2022/11/14 02:53:53;;;;;;;35.83;21.27;;;7.50;99.90;;;;;;5049823;28;20105;-66
2022/11/14 02:56:20;;;;;;;34.25;21.15;;;7.50;99.90;;;;;;5068675;28;20052;-67
2022/11/14 02:58:45;;;;;;;23.10;13.77;;;7.50;99.90;;;;;;5049067;28;20166;-67
2022/11/14 03:01:11;;;;;;;32.65;17.73;;;7.50;99.90;;;;;;5051055;28;20063;-66
2022/11/14 03:03:37;;;;;;;37.33;22.17;;;7.50;99.90;;;;;;5048882;28;20102;-67
2022/11/14 03:06:03;;;;;;;38.47;24.08;;;7.50;99.90;;;;;;5050736;28;20028;-67
2022/11/14 03:08:29;;;;;;;35.30;22.95;;;7.50;99.90;;;;;;5049341;28;20679;-67
2022/11/14 03:10:55;;;;;;;38.45;22.85;;;7.50;99.90;;;;;;5049742;28;20033;-67
2022/11/14 03:13:21;;;;;;;42.83;24.48;;;7.50;99.90;;;;;;5050681;28;20094;-67
2022/11/14 03:15:48;;;;;;;38.70;23.38;;;7.50;99.90;;;;;;5048403;28;20033;-67
2022/11/14 03:18:13;;;;;;;39.45;24.27;;;7.50;99.90;;;;;;5050894;28;20126;-67
2022/11/14 03:20:39;;;;;;;32.97;19.98;;;7.40;99.90;;;;;;5066280;28;20126;-66
2022/11/14 03:23:05;;;;;;;32.13;22.75;;;7.40;99.90;;;;;;5051014;28;20056;-67
2022/11/14 03:25:31;;;;;;;36.75;23.00;;;7.40;99.90;;;;;;5066574;28;20044;-67
2022/11/14 03:27:57;;;;;;;34.63;22.67;;;7.40;99.90;;;;;;5049755;28;20044;-67
2022/11/14 03:30:23;;;;;;;35.25;23.92;;;7.40;99.90;;;;;;5050371;28;20040;-66
2022/11/14 03:32:50;;;;;;;39.05;22.85;;;7.40;99.90;;;;;;5066544;28;20049;-67
2022/11/14 03:35:15;;;;;;;34.00;20.92;;;7.40;99.90;;;;;;5050578;28;20036;-67
2022/11/14 03:37:43;;;;;;;38.67;24.08;;;7.40;99.90;;;;;;5031729;28;20055;-67
2022/11/14 03:40:10;;;;;;;28.67;16.02;;;7.40;99.90;;;;;;5020116;28;20523;-67
2022/11/14 03:42:36;;;;;;;33.65;20.65;;;7.40;99.90;;;;;;5065996;28;20048;-67
2022/11/14 03:45:02;;;;;;;33.70;20.48;;;7.40;99.90;;;;;;5050120;28;20082;-67
2022/11/14 03:47:28;;;;;;;35.08;22.50;;;7.40;99.90;;;;;;5048862;28;20049;-68
2022/11/14 03:49:54;;;;;;;30.90;18.30;;;7.40;99.90;;;;;;5049210;28;20060;-67
2022/11/14 03:52:20;;;;;;;31.08;20.48;;;7.30;99.90;;;;;;5050169;28;20109;-67
2022/11/14 03:54:46;;;;;;;37.63;21.20;;;7.30;99.90;;;;;;5048205;28;20041;-66
2022/11/14 03:57:12;;;;;;;33.85;21.70;;;7.20;99.90;;;;;;5049748;28;20055;-67
2022/11/14 03:59:37;;;;;;;29.85;17.77;;;7.20;99.90;;;;;;5065736;28;20036;-67
2022/11/14 04:02:03;;;;;;;33.03;20.08;;;7.20;99.90;;;;;;5049756;28;20398;-66
2022/11/14 04:04:30;;;;;;;36.35;22.67;;;7.20;99.90;;;;;;5031954;28;20437;-66
2022/11/14 04:06:56;;;;;;;30.23;21.65;;;7.10;99.90;;;;;;5049613;28;20091;-66
2022/11/14 04:09:22;;;;;;;28.70;17.42;;;7.10;99.90;;;;;;5031632;28;20502;-67
2022/11/14 04:11:47;;;;;;;35.97;22.23;;;7.10;99.90;;;;;;5065774;28;20076;-67
2022/11/14 04:14:13;;;;;;;33.95;20.15;;;7.10;99.90;;;;;;5049721;28;20109;-67
2022/11/14 04:16:39;;;;;;;34.13;21.63;;;7.00;99.90;;;;;;5046289;28;20051;-67
2022/11/14 04:19:05;;;;;;;31.35;20.13;;;7.00;99.90;;;;;;5032645;28;20044;-67
2022/11/14 04:21:31;;;;;;;35.42;21.02;;;7.00;99.90;;;;;;5047251;28;20048;-67
2022/11/14 04:23:56;;;;;;;39.85;22.00;;;7.00;99.90;;;;;;5032911;28;20050;-67
2022/11/14 04:26:22;;;;;;;31.70;20.20;;;7.00;99.90;;;;;;5066144;28;20041;-67
2022/11/14 04:28:48;;;;;;;35.25;21.95;;;7.00;99.90;;;;;;5065455;28;20478;-67
2022/11/14 04:31:14;;;;;;;34.58;21.13;;;7.00;99.90;;;;;;5049187;28;20069;-68
2022/11/14 04:33:39;;;;;;;35.78;22.15;;;7.00;99.90;;;;;;5047295;28;20032;-67
2022/11/14 04:36:05;;;;;;;32.83;22.65;;;7.00;99.90;;;;;;5049658;28;20054;-67
2022/11/14 04:38:31;;;;;;;33.72;20.70;;;7.00;99.90;;;;;;5030930;28;20051;-67
2022/11/14 04:40:57;;;;;;;33.70;21.02;;;6.90;99.90;;;;;;5048216;28;20055;-67
2022/11/14 04:43:23;;;;;;;31.65;21.08;;;6.90;99.90;;;;;;5047665;28;20056;-67
2022/11/14 04:45:49;;;;;;;33.25;21.42;;;6.80;99.90;;;;;;5015862;28;20886;-67
2022/11/14 04:48:15;;;;;;;30.73;20.48;;;6.80;99.90;;;;;;5066351;28;20048;-66
2022/11/14 04:50:40;;;;;;;32.35;21.08;;;6.80;99.90;;;;;;5047181;28;20055;-67
2022/11/14 04:53:06;;;;;;;29.40;16.60;;;6.80;99.90;;;;;;5032189;28;20589;-67
2022/11/14 04:55:32;;;;;;;29.52;19.40;;;6.80;99.90;;;;;;5065355;28;20067;-67
2022/11/14 04:57:58;;;;;;;34.97;20.33;;;6.80;99.90;;;;;;5048726;28;20528;-67
2022/11/14 05:00:26;;;;;;;37.42;22.30;;;6.70;99.90;;;;;;5064295;28;20083;-66
2022/11/14 05:02:52;;;;;;;34.13;20.65;;;6.70;99.90;;;;;;5042173;28;20375;-67
2022/11/14 05:05:17;;;;;;;34.20;21.92;;;6.70;99.90;;;;;;5065674;28;20037;-67
2022/11/14 05:07:43;;;;;;;30.83;20.92;;;6.70;99.90;;;;;;5047911;28;20044;-67
2022/11/14 05:10:09;;;;;;;35.38;22.60;;;6.70;99.90;;;;;;5048483;28;20051;-66
2022/11/14 05:12:36;;;;;;;29.77;19.83;;;6.60;99.90;;;;;;5046841;28;20054;-67
2022/11/14 05:15:02;;;;;;;27.42;17.17;;;6.60;99.90;;;;;;5048932;28;20388;-67
2022/11/14 05:17:28;;;;;;;34.88;20.83;;;6.60;99.90;;;;;;5046402;28;20063;-67
2022/11/14 05:19:54;;;;;;;35.00;21.73;;;6.60;99.90;;;;;;5048628;28;20048;-67
2022/11/14 05:22:19;;;;;;;34.08;20.50;;;6.60;99.90;;;;;;5046806;28;20048;-67
2022/11/14 05:24:45;;;;;;;29.42;17.65;;;6.50;99.90;;;;;;5047714;28;20037;-67
2022/11/14 05:27:11;;;;;;;34.70;20.60;;;6.50;99.90;;;;;;5047935;28;20151;-67
2022/11/14 05:29:36;;;;;;;37.42;23.02;;;6.50;99.90;;;;;;5030463;28;20132;-67
2022/11/14 05:32:02;;;;;;;32.40;20.65;;;6.50;99.90;;;;;;5066156;28;20045;-67
2022/11/14 05:34:31;;;;;;;37.60;21.45;;;6.50;99.90;;;;;;5030537;28;20049;-66
2022/11/14 05:36:56;;;;;;;26.52;16.52;;;6.50;99.90;;;;;;5031712;28;20394;-67
2022/11/14 05:39:24;;;;;;;41.85;23.95;;;6.50;99.90;;;;;;5065241;28;20044;-67
2022/11/14 05:41:49;;;;;;;41.92;26.13;;;6.50;99.90;;;;;;5065349;28;20052;-67
2022/11/14 05:44:15;;;;;;;40.75;25.30;;;6.50;99.90;;;;;;5046697;28;20075;-67
2022/11/14 05:46:40;;;;;;;35.97;21.23;;;6.50;99.90;;;;;;5047150;28;20048;-67
2022/11/14 05:49:06;;;;;;;40.40;23.63;;;6.50;99.90;;;;;;5047916;28;20051;-67
2022/11/14 05:51:32;;;;;;;43.95;26.95;;;6.50;99.90;;;;;;5064520;28;20051;-68
2022/11/14 05:53:58;;;;;;;45.90;27.05;;;6.50;99.90;;;;;;5047562;28;20072;-67
2022/11/14 05:56:23;;;;;;;43.60;25.15;;;6.50;99.90;;;;;;5064014;28;20075;-67
2022/11/14 05:58:49;;;;;;;40.67;22.00;;;6.50;99.90;;;;;;5047348;28;20055;-67
2022/11/14 06:01:17;;;;;;;42.35;25.65;;;6.50;99.90;;;;;;5029939;28;20060;-67
2022/11/14 06:03:46;;;;;;;36.30;22.05;;;6.50;99.90;;;;;;5047307;28;20437;-67
2022/11/14 06:06:16;;;;;;;34.35;20.23;;;6.50;99.90;;;;;;5065628;28;20049;-66
2022/11/14 06:08:43;;;;;;;42.28;25.83;;;6.50;99.90;;;;;;5064436;28;20518;-67
2022/11/14 06:11:15;;;;;;;42.30;24.65;;;6.40;99.90;;;;;;5048092;28;20072;-67
2022/11/14 06:13:41;;;;;;;39.63;23.15;;;6.40;99.90;;;;;;5045941;28;20056;-67
2022/11/14 06:16:11;;;;;;;33.88;19.13;;;6.40;99.90;;;;;;5047565;28;20049;-67
2022/11/14 06:18:37;;;;;;;43.90;25.60;;;6.40;99.90;;;;;;5029978;28;20612;-66
2022/11/14 06:21:06;;;;;;;41.17;24.17;;;6.40;99.90;;;;;;5030173;28;20318;-66
2022/11/14 06:23:32;;;;;;;40.83;25.48;;;6.40;99.90;;;;;;5047301;28;20080;-67
2022/11/14 06:26:03;;;;;;;38.25;24.40;;;6.40;99.90;;;;;;5046111;28;20048;-67
2022/11/14 06:28:30;;;;;;;42.72;25.27;;;6.30;99.90;;;;;;5047716;28;20044;-66
2022/11/14 06:31:05;;;;;;;45.60;24.05;;;6.30;99.90;;;;;;5063594;28;20068;-67
2022/11/14 06:33:35;;;;;;;41.28;22.33;;;6.30;99.90;;;;;;5065735;28;20484;-67
2022/11/14 06:36:04;;;;;;;39.00;23.10;;;6.30;99.90;;;;;;5064192;28;20045;-68
2022/11/14 06:38:31;;;;;;;40.60;23.10;;;6.30;99.90;;;;;;5047169;28;20049;-67
2022/11/14 06:41:12;;;;;;;37.47;22.15;;;6.30;99.90;;;;;;5064723;28;20136;-67
2022/11/14 06:43:43;;;;;;;43.05;23.73;;;6.30;99.90;;;;;;5045775;28;20048;-67
2022/11/14 06:46:11;;;;;;;37.60;22.88;;;6.20;99.90;;;;;;5047624;28;20438;-67
2022/11/14 06:48:37;;;;;;;42.15;23.95;;;6.20;99.90;;;;;;5045767;28;20051;-68
2022/11/14 06:51:05;;;;;;;41.25;23.67;;;6.20;99.90;;;;;;5030650;28;20036;-68
2022/11/14 06:53:33;;;;;;;40.63;24.33;;;6.20;99.90;;;;;;5048480;28;20124;-67
2022/11/14 06:56:08;;;;;;;38.72;23.90;;;6.30;99.90;;;;;;5050292;28;20093;-68
2022/11/14 06:58:39;;;;;;;45.25;23.23;;;6.20;99.90;;;;;;5069014;28;20111;-67
2022/11/14 07:01:10;;;;;;;45.15;24.52;;;6.20;99.90;;;;;;5048507;28;20051;-67
2022/11/14 07:03:36;;;;;;;42.75;24.73;;;6.20;99.90;;;;;;5033941;28;20040;-68
2022/11/14 07:06:04;;;;;;;46.00;24.05;;;6.20;99.90;;;;;;5066832;28;20050;-67
2022/11/14 07:08:30;;;;;;;38.10;23.83;;;6.20;99.90;;;;;;5068410;28;20053;-67
2022/11/14 07:11:07;;;;;;;40.20;23.00;;;6.20;99.90;;;;;;5067409;28;20044;-67
2022/11/14 07:13:34;;;;;;;43.05;22.92;;;6.20;99.90;;;;;;5048986;28;20141;-67
2022/11/14 07:16:01;;;;;;;37.05;21.98;;;6.20;99.90;;;;;;5033420;28;20076;-67
2022/11/14 07:18:29;;;;;;;36.58;21.42;;;6.20;99.90;;;;;;5031214;28;20504;-67
2022/11/14 07:21:04;;;;;;;38.13;21.67;;;6.20;99.90;;;;;;5049440;28;20053;-67
2022/11/14 07:23:31;;;;;;;44.72;24.55;;;6.20;99.90;;;;;;5033031;28;20787;-67
2022/11/14 07:26:01;;;;;;;37.38;21.27;;;6.10;99.90;;;;;;5067525;28;20036;-67
2022/11/14 07:28:27;;;;;;;37.55;19.83;;;6.10;99.90;;;;;;5050593;28;20052;-67
2022/11/14 07:30:53;;;;;;;38.17;21.80;;;6.10;99.90;;;;;;5031781;28;20040;-67
2022/11/14 07:33:19;;;;;;;35.15;21.35;;;6.10;99.90;;;;;;5050408;28;20122;-67
2022/11/14 07:35:45;;;;;;;38.53;23.83;;;6.10;99.90;;;;;;5048258;28;20044;-66
2022/11/14 07:38:10;;;;;;;44.25;25.10;;;6.20;99.90;;;;;;5033211;28;20517;-67
2022/11/14 07:40:36;;;;;;;38.33;22.83;;;6.20;99.90;;;;;;5048109;28;20139;-67
2022/11/14 07:43:02;;;;;;;36.63;21.60;;;6.20;99.90;;;;;;5050003;28;20040;-67
2022/11/14 07:45:29;;;;;;;35.53;22.25;;;6.20;99.90;;;;;;5066842;28;20044;-67
2022/11/14 07:47:59;;;;;;;38.55;20.75;;;6.20;99.90;;;;;;5048873;28;20123;-67
2022/11/14 07:50:27;;;;;;;39.63;22.75;;;6.20;99.90;;;;;;5049413;28;20053;-67
2022/11/14 07:52:55;;;;;;;36.92;22.98;;;6.20;99.90;;;;;;5065872;28;20405;-67
2022/11/14 07:55:21;;;;;;;46.10;26.55;;;6.20;99.90;;;;;;5068109;28;20052;-68
2022/11/14 07:57:51;;;;;;;40.63;23.88;;;6.20;99.90;;;;;;5031897;28;20041;-67
2022/11/14 08:00:16;;;;;;;37.70;22.40;;;6.20;99.90;;;;;;5031552;28;20549;-67
2022/11/14 08:02:44;;;;;;;39.30;24.52;;;6.20;99.90;;;;;;5066677;28;20040;-67
2022/11/14 08:05:10;;;;;;;34.65;21.88;;;6.20;99.90;;;;;;5047325;28;20060;-67
2022/11/14 08:07:35;;;;;;;46.97;22.65;;;6.30;99.90;;;;;;5028817;28;20048;-68
2022/11/14 08:10:01;;;;;;;39.33;22.88;;;6.30;99.90;;;;;;5038047;28;20033;-68
2022/11/14 08:12:27;;;;;;;38.70;24.33;;;6.30;99.90;;;;;;5029662;28;20052;-67
2022/11/14 08:14:52;;;;;;;40.60;20.88;;;6.30;99.90;;;;;;5065941;28;20632;-67
2022/11/14 08:17:22;;;;;;;36.00;19.45;;;6.30;99.90;;;;;;5038713;28;20045;-67
2022/11/14 08:19:48;;;;;;;38.80;23.55;;;6.30;99.90;;;;;;5046031;28;20386;-67
2022/11/14 08:22:13;;;;;;;41.28;24.08;;;6.30;99.90;;;;;;5057644;28;20048;-67
2022/11/14 08:24:39;;;;;;;41.22;23.80;;;6.30;99.90;;;;;;5046750;28;20078;-67
2022/11/14 08:27:05;;;;;;;41.83;24.10;;;6.40;99.90;;;;;;5045838;28;20533;-68
2022/11/14 08:29:31;;;;;;;40.33;24.83;;;6.40;99.90;;;;;;5065327;28;20067;-68
2022/11/14 08:31:56;;;;;;;43.50;24.73;;;6.40;99.90;;;;;;5045051;28;20483;-67
2022/11/14 08:34:23;;;;;;;40.38;24.65;;;6.40;99.90;;;;;;5064564;28;20052;-67
2022/11/14 08:36:49;;;;;;;41.53;23.42;;;6.40;99.90;;;;;;5045867;28;20174;-67
2022/11/14 08:39:15;;;;;;;42.72;23.52;;;6.40;99.90;;;;;;5029992;28;20496;-67
2022/11/14 08:41:41;;;;;;;39.40;21.98;;;6.40;99.90;;;;;;5063242;28;20210;-67
2022/11/14 08:44:06;;;;;;;34.85;19.70;;;6.40;99.90;;;;;;5046866;28;20052;-67
2022/11/14 08:46:32;;;;;;;45.55;25.65;;;6.40;99.90;;;;;;5066640;28;20055;-68
2022/11/14 08:48:58;;;;;;;44.78;25.20;;;6.40;99.90;;;;;;5047689;28;20035;-68
2022/11/14 08:51:24;;;;;;;44.30;25.83;;;6.50;99.90;;;;;;5048675;28;20051;-67
2022/11/14 08:53:51;;;;;;;44.55;28.35;;;6.50;99.90;;;;;;5030378;28;20040;-67
2022/11/14 08:56:17;;;;;;;49.40;25.02;;;6.50;99.90;;;;;;5049003;28;20406;-67
2022/11/14 08:58:43;;;;;;;45.88;27.27;;;6.50;99.90;;;;;;5047245;28;20058;-67
2022/11/14 09:01:09;;;;;;;43.42;27.63;;;6.50;99.90;;;;;;5048107;28;20591;-67
2022/11/14 09:03:35;;;;;;;36.63;23.15;;;6.60;99.90;;;;;;5031712;28;20126;-66
2022/11/14 09:06:02;;;;;;;40.80;23.73;;;6.50;99.90;;;;;;5055960;28;20163;-68
2022/11/14 09:08:28;;;;;;;42.95;25.88;;;6.60;99.90;;;;;;5032581;28;20125;-68
2022/11/14 09:10:55;;;;;;;38.95;24.10;;;6.60;99.90;;;;;;5013904;28;20126;-67
2022/11/14 09:13:21;;;;;;;42.88;27.58;;;6.70;99.90;;;;;;5047978;28;20040;-68
2022/11/14 09:15:47;;;;;;;36.45;21.80;;;6.70;99.90;;;;;;5030106;28;20056;-67
2022/11/14 09:18:14;;;;;;;42.00;26.52;;;6.70;99.90;;;;;;5031939;28;20495;-68
2022/11/14 09:20:42;;;;;;;43.15;24.05;;;6.70;99.90;;;;;;5065264;28;20106;-67
2022/11/14 09:23:09;;;;;;;45.22;26.50;;;6.80;99.90;;;;;;5036567;28;20068;-67
2022/11/14 09:25:35;;;;;;;49.55;28.70;;;6.80;99.90;;;;;;5040392;28;20507;-68
2022/11/14 09:28:07;;;;;;;42.58;26.58;;;6.90;99.90;;;;;;5030082;28;20060;-68
2022/11/14 09:30:34;;;;;;;45.03;24.48;;;7.00;99.90;;;;;;5048633;28;20056;-66
2022/11/14 09:33:02;;;;;;;43.97;22.48;;;7.00;99.90;;;;;;5046243;28;20559;-67
2022/11/14 09:35:31;;;;;;;41.92;23.83;;;7.00;99.90;;;;;;5047572;28;20048;-67
2022/11/14 09:38:05;;;;;;;45.03;27.88;;;6.90;99.90;;;;;;5046923;28;20048;-67
2022/11/14 09:40:49;;;;;;;40.38;24.20;;;6.90;99.90;;;;;;5047149;28;20056;-67
2022/11/14 09:43:42;;;;;;;47.72;28.30;;;6.90;99.90;;;;;;5041745;28;20049;-68
2022/11/14 09:46:21;;;;;;;44.25;25.77;;;7.00;99.90;;;;;;5043860;28;20056;-68
2022/11/14 09:48:47;;;;;;;45.47;24.38;;;7.00;99.90;;;;;;5036990;28;20128;-67
2022/11/14 09:51:20;;;;;;;40.60;24.55;;;7.10;99.90;;;;;;5030457;28;20552;-67
2022/11/14 09:53:55;;;;;;;45.67;22.17;;;7.00;99.90;;;;;;5027557;28;20048;-67
2022/11/14 09:56:25;;;;;;;46.75;27.08;;;7.10;99.90;;;;;;5044036;28;20047;-67
2022/11/14 09:58:54;;;;;;;41.88;25.70;;;7.10;99.90;;;;;;5043185;28;20040;-67
2022/11/14 10:01:56;;;;;;;40.70;25.13;;;7.10;99.90;;;;;;5065567;28;20480;-67
2022/11/14 10:04:58;;;;;;;43.67;25.20;;;7.10;99.90;;;;;;5059274;28;20461;-67
2022/11/14 10:07:43;;;;;;;48.17;27.02;;;7.20;99.90;;;;;;5038521;28;20060;-67
2022/11/14 10:10:41;;;;;;;45.58;26.35;;;7.30;99.90;;;;;;5042831;28;20044;-67
2022/11/14 10:13:33;;;;;;;39.25;21.15;;;7.30;99.90;;;;;;5012559;28;20060;-67
2022/11/14 10:16:04;;;;;;;37.95;21.15;;;7.30;99.90;;;;;;5043633;28;20055;-67
2022/11/14 10:18:42;;;;;;;39.50;22.45;;;7.30;99.90;;;;;;5062387;28;21107;-67
2022/11/14 10:21:28;;;;;;;39.72;25.08;;;7.30;99.90;;;;;;5029542;28;20532;-67
2022/11/14 10:24:12;;;;;;;42.72;26.25;;;7.30;99.90;;;;;;5044243;28;20036;-67
2022/11/14 10:26:56;;;;;;;42.17;24.73;;;7.30;99.90;;;;;;5046579;28;20074;-67
2022/11/14 10:29:53;;;;;;;39.83;24.42;;;7.30;99.90;;;;;;5046891;28;20048;-67
2022/11/14 10:32:37;;;;;;;48.25;24.77;;;7.40;99.90;;;;;;5048611;28;20049;-67
2022/11/14 10:35:17;;;;;;;43.13;24.88;;;7.40;99.90;;;;;;5063765;28;20040;-67
2022/11/14 10:38:12;;;;;;;;;;;7.50;99.90;;;;;;5057204;28;20107;-66
2022/11/14 10:40:42;;;;;;;39.50;17.10;;;7.60;99.90;;;;;;5029491;28;20388;-67
2022/11/14 10:43:27;;;;;;;;;;;7.70;99.90;;;;;;5029207;28;20059;-67
2022/11/14 10:46:00;;;;;;;39.33;23.27;;;7.80;99.90;;;;;;5048576;28;19971;-67
2022/11/14 10:48:37;;;;;;;54.63;28.25;;;7.90;99.90;;;;;;5065960;28;20083;-67
2022/11/14 10:51:36;;;;;;;46.53;26.65;;;8.00;99.90;;;;;;5067535;28;20483;-66
2022/11/14 10:54:26;;;;;;;39.60;23.65;;;7.90;99.90;;;;;;5059573;28;20041;-68
2022/11/14 10:56:54;;;;;;;40.13;23.45;;;7.90;99.90;;;;;;5050894;28;20083;-67
2022/11/14 10:59:20;;;;;;;35.75;23.30;;;7.90;99.90;;;;;;5046119;28;20056;-67
2022/11/14 11:01:49;;;;;;;42.42;22.90;;;7.80;99.90;;;;;;5068522;28;20044;-67
2022/11/14 11:04:21;;;;;;;39.15;23.45;;;7.60;99.90;;;;;;5046018;28;20443;-67
2022/11/14 11:06:50;;;;;;;40.70;23.98;;;7.60;99.90;;;;;;5049965;28;20048;-67
2022/11/14 11:12:16;;;;;;;42.13;23.83;;;7.60;99.90;;;;;;5066603;28;20055;-67
2022/11/14 11:14:48;;;;;;;44.90;24.33;;;7.70;99.90;;;;;;5048984;28;20511;-68
2022/11/14 11:17:15;;;;;;;43.90;19.75;;;7.80;99.90;;;;;;5049637;28;20139;-67
2022/11/14 11:19:42;;;;;;;49.08;25.88;;;7.90;99.90;;;;;;5046819;28;20048;-67
2022/11/14 11:22:29;;;;;;;40.50;24.20;;;7.90;99.90;;;;;;5033531;28;20470;-67
2022/11/14 11:24:55;;;;;;;42.20;24.77;;;8.00;99.90;;;;;;5032241;28;20405;-67
2022/11/14 11:27:23;;;;;;;47.00;25.65;;;8.00;99.90;;;;;;5049911;28;20141;-67
2022/11/14 11:30:19;;;;;;;42.88;24.30;;;8.10;99.90;;;;;;5048067;28;20615;-67
2022/11/14 11:32:45;;;;;;;45.22;26.33;;;8.20;99.90;;;;;;5054877;28;20118;-68
2022/11/14 11:35:13;;;;;;;43.15;26.10;;;8.30;99.90;;;;;;5049342;28;20041;-70
2022/11/14 11:37:47;;;;;;;44.53;25.52;;;8.30;99.90;;;;;;5030050;28;20052;-68
2022/11/14 11:40:18;;;;;;;40.47;24.95;;;8.40;99.90;;;;;;5030791;28;20118;-67
2022/11/14 11:43:05;;;;;;;42.72;23.73;;;8.40;99.90;;;;;;5047298;28;20048;-68
2022/11/14 11:45:32;;;;;;;34.70;21.40;;;8.50;99.90;;;;;;5038354;28;20051;-68
2022/11/14 11:48:00;;;;;;;39.72;25.83;;;8.50;99.90;;;;;;5065726;28;20105;-69
2022/11/14 11:50:26;;;;;;;43.03;23.65;;;8.50;99.90;;;;;;5047986;28;20040;-68
2022/11/14 11:53:11;;;;;;;41.30;24.20;;;8.60;99.90;;;;;;5043156;28;20049;-69
2022/11/14 11:55:51;;;;;;;36.35;23.50;;;8.60;99.90;;;;;;5035281;28;20504;-68
2022/11/14 11:58:25;;;;;;;37.67;23.08;;;8.70;99.90;;;;;;5045843;28;20518;-68
2022/11/14 12:00:54;;;;;;;37.55;22.95;;;8.80;99.90;;;;;;5048154;28;20052;-68
2022/11/14 12:03:21;;;;;;;36.58;22.10;;;8.80;99.90;;;;;;5048045;28;20529;-69
2022/11/14 12:06:11;;;;;;;36.05;21.15;;;8.90;99.90;;;;;;5015829;28;20033;-69
2022/11/14 12:08:47;;;;;;;40.30;20.75;;;8.90;99.90;;;;;;5047114;28;20738;-68
2022/11/14 12:11:18;;;;;;;38.92;23.48;;;9.00;99.90;;;;;;5049185;28;20056;-68
2022/11/14 12:14:08;;;;;;;38.00;21.88;;;9.00;99.90;;;;;;5048059;28;20147;-69
2022/11/14 12:16:44;;;;;;;34.00;21.02;;;9.10;99.90;;;;;;5023729;28;20102;-68
2022/11/14 12:19:19;;;;;;;32.33;21.02;;;9.20;99.90;;;;;;5049120;28;20463;-68
2022/11/14 12:22:13;;;;;;;36.42;21.02;;;9.20;99.90;;;;;;5064447;28;20398;-68
2022/11/14 12:25:04;;;;;;;33.47;21.27;;;9.30;99.90;;;;;;5031072;28;20044;-69
2022/11/14 12:27:48;;;;;;;37.60;21.63;;;9.30;99.90;;;;;;5042312;28;20052;-70
2022/11/14 12:30:20;;;;;;;39.30;21.73;;;9.40;99.90;;;;;;5039837;28;20450;-70
2022/11/14 12:33:01;;;;;;;38.30;24.33;;;9.50;99.90;;;;;;5048615;28;20044;-70
2022/11/14 12:35:29;;;;;;;;;;;9.50;99.90;;;;;;5048660;28;20468;-70
2022/11/14 12:37:57;;;;;;;38.80;22.33;;;9.60;99.90;;;;;;5031243;28;19928;-70
2022/11/14 12:40:32;;;;;;;35.00;21.90;;;9.70;99.90;;;;;;5032106;28;20055;-70
2022/11/14 12:42:59;;;;;;;39.83;21.45;;;9.70;99.90;;;;;;5046636;28;20091;-70
2022/11/14 12:45:49;;;;;;;35.33;20.83;;;9.80;99.90;;;;;;5032442;28;20121;-70
2022/11/14 12:48:32;;;;;;;34.70;20.10;;;9.80;99.90;;;;;;5019817;28;20064;-70
2022/11/14 12:51:01;;;;;;;32.83;18.90;;;9.90;99.90;;;;;;5047068;28;20044;-70
2022/11/14 12:53:35;;;;;;;21.83;13.02;;;9.90;99.90;;;;;;5047934;28;20065;-70